sensor_id;sensor_type;location;lat;lon;timestamp;pressure;altitude;pressure_sealevel;temperature
61703;BMP280;47622;47.726;3.298;2023-07-31T00:00:50;99284.25;;;15.77
61703;BMP280;47622;47.726;3.298;2023-07-31T00:03:16;99281.72;;;15.80
61703;BMP280;47622;47.726;3.298;2023-07-31T00:05:41;99280.81;;;15.76
61703;BMP280;47622;47.726;3.298;2023-07-31T00:08:07;99283.28;;;15.69
61703;BMP280;47622;47.726;3.298;2023-07-31T00:10:32;99284.59;;;15.75
61703;BMP280;47622;47.726;3.298;2023-07-31T00:12:58;99282.84;;;15.79
61703;BMP280;47622;47.726;3.298;2023-07-31T00:15:24;99279.53;;;15.70
61703;BMP280;47622;47.726;3.298;2023-07-31T00:17:50;99273.34;;;15.66
61703;BMP280;47622;47.726;3.298;2023-07-31T00:20:15;99268.75;;;15.63
61703;BMP280;47622;47.726;3.298;2023-07-31T00:22:41;99267.09;;;15.58
61703;BMP280;47622;47.726;3.298;2023-07-31T00:25:06;99270.03;;;15.57
61703;BMP280;47622;47.726;3.298;2023-07-31T00:27:32;99269.38;;;15.60
61703;BMP280;47622;47.726;3.298;2023-07-31T00:29:59;99257.03;;;15.52
61703;BMP280;47622;47.726;3.298;2023-07-31T00:32:24;99256.38;;;15.55
61703;BMP280;47622;47.726;3.298;2023-07-31T00:34:50;99247.34;;;15.56
61703;BMP280;47622;47.726;3.298;2023-07-31T00:37:16;99262.44;;;15.55
61703;BMP280;47622;47.726;3.298;2023-07-31T00:39:41;99255.59;;;15.67
61703;BMP280;47622;47.726;3.298;2023-07-31T00:42:07;99248.03;;;15.65
61703;BMP280;47622;47.726;3.298;2023-07-31T00:44:33;99253.63;;;15.76
61703;BMP280;47622;47.726;3.298;2023-07-31T00:46:58;99243.41;;;15.74
61703;BMP280;47622;47.726;3.298;2023-07-31T00:49:24;99247.81;;;15.70
61703;BMP280;47622;47.726;3.298;2023-07-31T00:51:50;99244.03;;;15.71
61703;BMP280;47622;47.726;3.298;2023-07-31T00:54:16;99241.81;;;15.73
61703;BMP280;47622;47.726;3.298;2023-07-31T00:56:45;99247.34;;;15.68
61703;BMP280;47622;47.726;3.298;2023-07-31T00:59:10;99248.69;;;15.74
61703;BMP280;47622;47.726;3.298;2023-07-31T01:01:36;99237.22;;;15.70
61703;BMP280;47622;47.726;3.298;2023-07-31T01:04:02;99225.75;;;15.66
61703;BMP280;47622;47.726;3.298;2023-07-31T01:06:42;99229.25;;;15.82
61703;BMP280;47622;47.726;3.298;2023-07-31T01:09:25;99227.75;;;15.81
61703;BMP280;47622;47.726;3.298;2023-07-31T01:12:02;99227.16;;;15.88
61703;BMP280;47622;47.726;3.298;2023-07-31T01:14:28;99226.38;;;15.87
61703;BMP280;47622;47.726;3.298;2023-07-31T01:16:54;99224.66;;;15.79
61703;BMP280;47622;47.726;3.298;2023-07-31T01:19:22;99228.06;;;15.80
61703;BMP280;47622;47.726;3.298;2023-07-31T01:24:37;99216.72;;;15.67
61703;BMP280;47622;47.726;3.298;2023-07-31T01:27:15;99214.94;;;15.71
61703;BMP280;47622;47.726;3.298;2023-07-31T01:29:48;99214.06;;;15.67
61703;BMP280;47622;47.726;3.298;2023-07-31T01:32:14;99219.59;;;15.62
61703;BMP280;47622;47.726;3.298;2023-07-31T01:34:44;99216.38;;;15.56
61703;BMP280;47622;47.726;3.298;2023-07-31T01:37:09;99211.97;;;15.60
61703;BMP280;47622;47.726;3.298;2023-07-31T01:39:35;99221.47;;;15.74
61703;BMP280;47622;47.726;3.298;2023-07-31T01:42:00;99214.06;;;15.79
61703;BMP280;47622;47.726;3.298;2023-07-31T01:44:27;99220.22;;;15.83
61703;BMP280;47622;47.726;3.298;2023-07-31T01:46:52;99223.72;;;15.87
61703;BMP280;47622;47.726;3.298;2023-07-31T01:49:18;99235.44;;;15.86
61703;BMP280;47622;47.726;3.298;2023-07-31T01:51:43;99230.78;;;15.83
61703;BMP280;47622;47.726;3.298;2023-07-31T01:54:09;99227.75;;;15.81
61703;BMP280;47622;47.726;3.298;2023-07-31T01:56:35;99220.66;;;15.73
61703;BMP280;47622;47.726;3.298;2023-07-31T01:59:01;99225.09;;;15.69
61703;BMP280;47622;47.726;3.298;2023-07-31T02:01:27;99224.34;;;15.69
61703;BMP280;47622;47.726;3.298;2023-07-31T02:03:52;99217.19;;;15.69
61703;BMP280;47622;47.726;3.298;2023-07-31T02:06:18;99224.88;;;15.74
61703;BMP280;47622;47.726;3.298;2023-07-31T02:08:43;99222.88;;;15.71
61703;BMP280;47622;47.726;3.298;2023-07-31T02:11:09;99222.31;;;15.78
61703;BMP280;47622;47.726;3.298;2023-07-31T02:13:34;99214.53;;;15.69
61703;BMP280;47622;47.726;3.298;2023-07-31T02:16:00;99213.44;;;15.70
61703;BMP280;47622;47.726;3.298;2023-07-31T02:18:26;99203.03;;;15.77
61703;BMP280;47622;47.726;3.298;2023-07-31T02:20:52;99204.03;;;15.73
61703;BMP280;47622;47.726;3.298;2023-07-31T02:23:19;99202.63;;;15.75
61703;BMP280;47622;47.726;3.298;2023-07-31T02:25:45;99196.63;;;15.78
61703;BMP280;47622;47.726;3.298;2023-07-31T02:28:10;99197.97;;;15.84
61703;BMP280;47622;47.726;3.298;2023-07-31T02:30:36;99196.41;;;15.83
61703;BMP280;47622;47.726;3.298;2023-07-31T02:33:02;99211.66;;;15.74
61703;BMP280;47622;47.726;3.298;2023-07-31T02:35:27;99212.41;;;15.87
61703;BMP280;47622;47.726;3.298;2023-07-31T02:37:53;99206.75;;;15.88
61703;BMP280;47622;47.726;3.298;2023-07-31T02:40:19;99214.72;;;15.76
61703;BMP280;47622;47.726;3.298;2023-07-31T02:42:44;99203.81;;;15.66
61703;BMP280;47622;47.726;3.298;2023-07-31T02:45:10;99199.09;;;15.71
61703;BMP280;47622;47.726;3.298;2023-07-31T02:47:35;99199.50;;;15.73
61703;BMP280;47622;47.726;3.298;2023-07-31T02:50:04;99195.81;;;15.74
61703;BMP280;47622;47.726;3.298;2023-07-31T02:52:30;99207.66;;;15.92
61703;BMP280;47622;47.726;3.298;2023-07-31T02:54:56;99225.09;;;15.69
61703;BMP280;47622;47.726;3.298;2023-07-31T02:57:22;99218.25;;;15.68
61703;BMP280;47622;47.726;3.298;2023-07-31T02:59:48;99208.94;;;15.58
61703;BMP280;47622;47.726;3.298;2023-07-31T03:02:13;99206.59;;;15.57
61703;BMP280;47622;47.726;3.298;2023-07-31T03:04:39;99215.75;;;15.59
61703;BMP280;47622;47.726;3.298;2023-07-31T03:07:05;99213.97;;;15.51
61703;BMP280;47622;47.726;3.298;2023-07-31T03:09:32;99216.31;;;15.53
61703;BMP280;47622;47.726;3.298;2023-07-31T03:11:57;99210.13;;;15.49
61703;BMP280;47622;47.726;3.298;2023-07-31T03:14:23;99207.28;;;15.54
61703;BMP280;47622;47.726;3.298;2023-07-31T03:16:48;99194.47;;;15.56
61703;BMP280;47622;47.726;3.298;2023-07-31T03:19:14;99204.19;;;15.64
61703;BMP280;47622;47.726;3.298;2023-07-31T03:21:41;99213.53;;;15.61
61703;BMP280;47622;47.726;3.298;2023-07-31T03:24:07;99210.31;;;15.68
61703;BMP280;47622;47.726;3.298;2023-07-31T03:26:32;99210.31;;;15.68
61703;BMP280;47622;47.726;3.298;2023-07-31T03:29:00;99213.66;;;15.65
61703;BMP280;47622;47.726;3.298;2023-07-31T03:31:25;99190.97;;;15.64
61703;BMP280;47622;47.726;3.298;2023-07-31T03:33:51;99197.78;;;15.65
61703;BMP280;47622;47.726;3.298;2023-07-31T03:36:16;99198.84;;;15.76
61703;BMP280;47622;47.726;3.298;2023-07-31T03:38:42;99202.63;;;15.75
61703;BMP280;47622;47.726;3.298;2023-07-31T03:41:07;99189.63;;;15.70
61703;BMP280;47622;47.726;3.298;2023-07-31T03:43:33;99187.72;;;15.83
61703;BMP280;47622;47.726;3.298;2023-07-31T03:46:00;99192.94;;;15.79
61703;BMP280;47622;47.726;3.298;2023-07-31T03:48:25;99196.63;;;15.78
61703;BMP280;47622;47.726;3.298;2023-07-31T03:50:51;99191.34;;;15.78
61703;BMP280;47622;47.726;3.298;2023-07-31T03:53:17;99189.81;;;15.77
61703;BMP280;47622;47.726;3.298;2023-07-31T03:55:43;99198.22;;;15.79
61703;BMP280;47622;47.726;3.298;2023-07-31T03:58:08;99194.88;;;15.82
61703;BMP280;47622;47.726;3.298;2023-07-31T04:00:34;99193.00;;;15.95
61703;BMP280;47622;47.726;3.298;2023-07-31T04:02:59;99180.53;;;15.95
61703;BMP280;47622;47.726;3.298;2023-07-31T04:05:25;99181.75;;;15.98
61703;BMP280;47622;47.726;3.298;2023-07-31T04:07:52;99176.78;;;15.97
61703;BMP280;47622;47.726;3.298;2023-07-31T04:10:18;99174.78;;;15.93
61703;BMP280;47622;47.726;3.298;2023-07-31T04:12:43;99172.84;;;15.78
61703;BMP280;47622;47.726;3.298;2023-07-31T04:15:09;99170.00;;;15.71
61703;BMP280;47622;47.726;3.298;2023-07-31T04:17:35;99166.41;;;15.63
61703;BMP280;47622;47.726;3.298;2023-07-31T04:20:00;99172.31;;;15.73
61703;BMP280;47622;47.726;3.298;2023-07-31T04:22:26;99177.06;;;15.67
61703;BMP280;47622;47.726;3.298;2023-07-31T04:24:51;99166.94;;;15.57
61703;BMP280;47622;47.726;3.298;2023-07-31T04:27:17;99168.81;;;15.69
61703;BMP280;47622;47.726;3.298;2023-07-31T04:29:42;99179.25;;;15.77
61703;BMP280;47622;47.726;3.298;2023-07-31T04:32:11;99182.66;;;15.66
61703;BMP280;47622;47.726;3.298;2023-07-31T04:34:36;99189.44;;;15.63
61703;BMP280;47622;47.726;3.298;2023-07-31T04:37:02;99192.81;;;15.51
61703;BMP280;47622;47.726;3.298;2023-07-31T04:39:29;99195.03;;;15.49
61703;BMP280;47622;47.726;3.298;2023-07-31T04:41:55;99191.81;;;15.68
61703;BMP280;47622;47.726;3.298;2023-07-31T04:44:20;99194.03;;;15.66
61703;BMP280;47622;47.726;3.298;2023-07-31T04:46:46;99184.78;;;15.60
61703;BMP280;47622;47.726;3.298;2023-07-31T04:49:12;99185.66;;;15.52
61703;BMP280;47622;47.726;3.298;2023-07-31T04:51:38;99191.06;;;15.43
61703;BMP280;47622;47.726;3.298;2023-07-31T04:54:04;99185.88;;;15.47
61703;BMP280;47622;47.726;3.298;2023-07-31T04:56:29;99190.97;;;15.64
61703;BMP280;47622;47.726;3.298;2023-07-31T04:58:55;99182.97;;;15.76
61703;BMP280;47622;47.726;3.298;2023-07-31T05:01:21;99187.06;;;15.86
61703;BMP280;47622;47.726;3.298;2023-07-31T05:03:46;99175.91;;;15.92
61703;BMP280;47622;47.726;3.298;2023-07-31T05:06:12;99179.84;;;15.99
61703;BMP280;47622;47.726;3.298;2023-07-31T05:08:38;99182.94;;;16.01
61703;BMP280;47622;47.726;3.298;2023-07-31T05:11:04;99179.66;;;15.91
61703;BMP280;47622;47.726;3.298;2023-07-31T05:13:30;99180.25;;;15.85
61703;BMP280;47622;47.726;3.298;2023-07-31T05:15:55;99194.59;;;16.00
61703;BMP280;47622;47.726;3.298;2023-07-31T05:18:21;99186.91;;;16.07
61703;BMP280;47622;47.726;3.298;2023-07-31T05:20:47;99179.56;;;16.16
61703;BMP280;47622;47.726;3.298;2023-07-31T05:23:12;99177.75;;;16.32
61703;BMP280;47622;47.726;3.298;2023-07-31T05:25:38;99187.78;;;16.39
61703;BMP280;47622;47.726;3.298;2023-07-31T05:28:03;99179.59;;;16.44
61703;BMP280;47622;47.726;3.298;2023-07-31T05:30:32;99179.16;;;16.57
61703;BMP280;47622;47.726;3.298;2023-07-31T05:32:57;99188.59;;;16.71
61703;BMP280;47622;47.726;3.298;2023-07-31T05:35:23;99178.41;;;16.73
61703;BMP280;47622;47.726;3.298;2023-07-31T05:37:49;99174.75;;;16.77
61703;BMP280;47622;47.726;3.298;2023-07-31T05:40:16;99192.88;;;16.91
61703;BMP280;47622;47.726;3.298;2023-07-31T05:42:41;99179.03;;;16.98
61703;BMP280;47622;47.726;3.298;2023-07-31T05:45:07;99183.63;;;17.01
61703;BMP280;47622;47.726;3.298;2023-07-31T05:47:33;99188.66;;;17.06
61703;BMP280;47622;47.726;3.298;2023-07-31T05:50:00;99183.31;;;17.02
61703;BMP280;47622;47.726;3.298;2023-07-31T05:52:25;99196.81;;;17.13
61703;BMP280;47622;47.726;3.298;2023-07-31T05:54:51;99193.78;;;17.14
61703;BMP280;47622;47.726;3.298;2023-07-31T05:57:17;99190.78;;;17.32
61703;BMP280;47622;47.726;3.298;2023-07-31T05:59:42;99189.97;;;17.28
61703;BMP280;47622;47.726;3.298;2023-07-31T06:02:09;99194.47;;;17.27
61703;BMP280;47622;47.726;3.298;2023-07-31T06:04:35;99179.34;;;17.28
61703;BMP280;47622;47.726;3.298;2023-07-31T06:07:00;99181.31;;;17.15
61703;BMP280;47622;47.726;3.298;2023-07-31T06:09:26;99172.31;;;17.19
61703;BMP280;47622;47.726;3.298;2023-07-31T06:11:52;99179.09;;;17.17
61703;BMP280;47622;47.726;3.298;2023-07-31T06:14:18;99178.63;;;17.31
61703;BMP280;47622;47.726;3.298;2023-07-31T06:16:46;99185.56;;;17.35
61703;BMP280;47622;47.726;3.298;2023-07-31T06:19:11;99173.50;;;17.38
61703;BMP280;47622;47.726;3.298;2023-07-31T06:21:38;99186.06;;;17.41
61703;BMP280;47622;47.726;3.298;2023-07-31T06:24:05;99182.81;;;17.47
61703;BMP280;47622;47.726;3.298;2023-07-31T06:26:31;99179.25;;;17.59
61703;BMP280;47622;47.726;3.298;2023-07-31T06:28:57;99178.69;;;17.69
61703;BMP280;47622;47.726;3.298;2023-07-31T06:31:22;99189.84;;;17.59
61703;BMP280;47622;47.726;3.298;2023-07-31T06:33:49;99190.72;;;17.63
61703;BMP280;47622;47.726;3.298;2023-07-31T06:36:15;99185.41;;;17.63
61703;BMP280;47622;47.726;3.298;2023-07-31T06:38:40;99190.44;;;17.68
61703;BMP280;47622;47.726;3.298;2023-07-31T06:41:06;99174.16;;;17.70
61703;BMP280;47622;47.726;3.298;2023-07-31T06:43:31;99174.38;;;17.80
61703;BMP280;47622;47.726;3.298;2023-07-31T06:45:59;99182.78;;;18.02
61703;BMP280;47622;47.726;3.298;2023-07-31T06:48:25;99174.88;;;18.05
61703;BMP280;47622;47.726;3.298;2023-07-31T06:50:50;99173.69;;;17.83
61703;BMP280;47622;47.726;3.298;2023-07-31T06:53:17;99173.97;;;17.98
61703;BMP280;47622;47.726;3.298;2023-07-31T06:55:43;99185.72;;;18.16
61703;BMP280;47622;47.726;3.298;2023-07-31T06:58:08;99190.03;;;18.05
61703;BMP280;47622;47.726;3.298;2023-07-31T07:00:34;99174.50;;;18.26
61703;BMP280;47622;47.726;3.298;2023-07-31T07:03:00;99165.03;;;18.48
61703;BMP280;47622;47.726;3.298;2023-07-31T07:05:25;99163.34;;;18.82
61703;BMP280;47622;47.726;3.298;2023-07-31T07:07:51;99153.47;;;19.09
61703;BMP280;47622;47.726;3.298;2023-07-31T07:10:17;99146.41;;;19.23
61703;BMP280;47622;47.726;3.298;2023-07-31T07:12:43;99136.63;;;19.27
61703;BMP280;47622;47.726;3.298;2023-07-31T07:15:09;99154.00;;;19.21
61703;BMP280;47622;47.726;3.298;2023-07-31T07:17:35;99143.38;;;19.21
61703;BMP280;47622;47.726;3.298;2023-07-31T07:20:00;99132.38;;;18.97
61703;BMP280;47622;47.726;3.298;2023-07-31T07:22:26;99139.19;;;18.94
61703;BMP280;47622;47.726;3.298;2023-07-31T07:24:53;99129.78;;;19.00
61703;BMP280;47622;47.726;3.298;2023-07-31T07:27:18;99140.19;;;19.12
61703;BMP280;47622;47.726;3.298;2023-07-31T07:29:45;99122.44;;;19.83
61703;BMP280;47622;47.726;3.298;2023-07-31T07:32:13;99119.25;;;20.08
61703;BMP280;47622;47.726;3.298;2023-07-31T07:34:39;99131.00;;;21.06
61703;BMP280;47622;47.726;3.298;2023-07-31T07:37:04;99144.03;;;21.25
61703;BMP280;47622;47.726;3.298;2023-07-31T07:39:30;99137.16;;;21.20
61703;BMP280;47622;47.726;3.298;2023-07-31T07:41:55;99151.00;;;20.75
61703;BMP280;47622;47.726;3.298;2023-07-31T07:44:21;99137.84;;;20.45
61703;BMP280;47622;47.726;3.298;2023-07-31T07:46:46;99141.66;;;20.51
61703;BMP280;47622;47.726;3.298;2023-07-31T07:49:12;99128.34;;;20.51
61703;BMP280;47622;47.726;3.298;2023-07-31T07:51:38;99133.31;;;20.49
61703;BMP280;47622;47.726;3.298;2023-07-31T07:54:03;99145.16;;;20.11
61703;BMP280;47622;47.726;3.298;2023-07-31T07:56:29;99133.06;;;20.20
61703;BMP280;47622;47.726;3.298;2023-07-31T07:58:54;99122.97;;;21.02
61703;BMP280;47622;47.726;3.298;2023-07-31T08:01:20;99122.47;;;21.69
61703;BMP280;47622;47.726;3.298;2023-07-31T08:03:47;99132.38;;;22.71
61703;BMP280;47622;47.726;3.298;2023-07-31T08:06:12;99134.69;;;23.60
61703;BMP280;47622;47.726;3.298;2023-07-31T08:08:39;99121.03;;;25.35
61703;BMP280;47622;47.726;3.298;2023-07-31T08:11:05;99122.22;;;25.57
61703;BMP280;47622;47.726;3.298;2023-07-31T08:13:31;99130.66;;;26.06
61703;BMP280;47622;47.726;3.298;2023-07-31T08:15:57;99137.00;;;27.14
61703;BMP280;47622;47.726;3.298;2023-07-31T08:18:22;99132.44;;;27.11
61703;BMP280;47622;47.726;3.298;2023-07-31T08:20:48;99136.66;;;26.57
61703;BMP280;47622;47.726;3.298;2023-07-31T08:23:14;99153.78;;;27.22
61703;BMP280;47622;47.726;3.298;2023-07-31T08:25:40;99139.47;;;28.60
61703;BMP280;47622;47.726;3.298;2023-07-31T08:28:06;99135.72;;;29.08
61703;BMP280;47622;47.726;3.298;2023-07-31T08:30:32;99121.06;;;28.01
61703;BMP280;47622;47.726;3.298;2023-07-31T08:33:01;99126.91;;;27.83
61703;BMP280;47622;47.726;3.298;2023-07-31T08:35:27;99123.09;;;28.80
61703;BMP280;47622;47.726;3.298;2023-07-31T08:37:55;99110.50;;;28.07
61703;BMP280;47622;47.726;3.298;2023-07-31T08:40:20;99123.41;;;27.02
61703;BMP280;47622;47.726;3.298;2023-07-31T08:42:48;99123.78;;;26.05
61703;BMP280;47622;47.726;3.298;2023-07-31T08:45:19;99114.72;;;26.38
61703;BMP280;47622;47.726;3.298;2023-07-31T08:47:48;99123.78;;;26.05
61703;BMP280;47622;47.726;3.298;2023-07-31T08:50:16;99110.19;;;25.92
61703;BMP280;47622;47.726;3.298;2023-07-31T08:52:41;99107.78;;;25.48
61703;BMP280;47622;47.726;3.298;2023-07-31T08:55:08;99118.63;;;25.91
61703;BMP280;47622;47.726;3.298;2023-07-31T08:57:36;99116.06;;;26.86
61703;BMP280;47622;47.726;3.298;2023-07-31T09:00:07;99120.50;;;27.29
61703;BMP280;47622;47.726;3.298;2023-07-31T09:02:41;99111.34;;;27.26
61703;BMP280;47622;47.726;3.298;2023-07-31T09:05:11;99107.19;;;28.44
61703;BMP280;47622;47.726;3.298;2023-07-31T09:07:37;99117.72;;;27.81
61703;BMP280;47622;47.726;3.298;2023-07-31T09:10:04;99111.00;;;26.72
61703;BMP280;47622;47.726;3.298;2023-07-31T09:12:30;99100.59;;;27.26
61703;BMP280;47622;47.726;3.298;2023-07-31T09:14:57;99106.69;;;27.27
61703;BMP280;47622;47.726;3.298;2023-07-31T09:17:34;99100.13;;;27.76
61703;BMP280;47622;47.726;3.298;2023-07-31T09:20:19;99099.66;;;27.33
61703;BMP280;47622;47.726;3.298;2023-07-31T09:22:45;99091.34;;;26.35
61703;BMP280;47622;47.726;3.298;2023-07-31T09:25:26;99105.56;;;26.36
61703;BMP280;47622;47.726;3.298;2023-07-31T09:27:58;99106.63;;;25.76
61703;BMP280;47622;47.726;3.298;2023-07-31T09:30:24;99106.56;;;25.29
61703;BMP280;47622;47.726;3.298;2023-07-31T09:32:51;99097.72;;;25.55
61703;BMP280;47622;47.726;3.298;2023-07-31T09:35:27;99109.88;;;25.87
61703;BMP280;47622;47.726;3.298;2023-07-31T09:37:55;99107.09;;;26.14
61703;BMP280;47622;47.726;3.298;2023-07-31T09:40:32;99105.75;;;26.25
61703;BMP280;47622;47.726;3.298;2023-07-31T09:43:09;99099.66;;;26.21
61703;BMP280;47622;47.726;3.298;2023-07-31T09:45:37;99097.19;;;25.87
61703;BMP280;47622;47.726;3.298;2023-07-31T09:48:06;99091.47;;;25.62
61703;BMP280;47622;47.726;3.298;2023-07-31T09:50:32;99094.28;;;25.28
61703;BMP280;47622;47.726;3.298;2023-07-31T09:52:57;99085.00;;;24.41
61703;BMP280;47622;47.726;3.298;2023-07-31T09:55:24;99067.59;;;24.53
61703;BMP280;47622;47.726;3.298;2023-07-31T09:57:49;99075.09;;;25.26
61703;BMP280;47622;47.726;3.298;2023-07-31T10:00:17;99091.81;;;26.30
61703;BMP280;47622;47.726;3.298;2023-07-31T10:02:46;99086.00;;;26.12
61703;BMP280;47622;47.726;3.298;2023-07-31T10:05:14;99075.75;;;25.84
61703;BMP280;47622;47.726;3.298;2023-07-31T10:07:47;99077.13;;;26.35
61703;BMP280;47622;47.726;3.298;2023-07-31T10:10:16;99067.84;;;26.39
61703;BMP280;47622;47.726;3.298;2023-07-31T10:12:43;99075.09;;;26.95
61703;BMP280;47622;47.726;3.298;2023-07-31T10:15:11;99069.72;;;26.59
61703;BMP280;47622;47.726;3.298;2023-07-31T10:17:36;99067.28;;;26.84
61703;BMP280;47622;47.726;3.298;2023-07-31T10:20:04;99082.84;;;26.93
61703;BMP280;47622;47.726;3.298;2023-07-31T10:22:31;99066.63;;;26.60
61703;BMP280;47622;47.726;3.298;2023-07-31T10:24:59;99072.25;;;25.87
61703;BMP280;47622;47.726;3.298;2023-07-31T10:27:26;99054.78;;;25.02
61703;BMP280;47622;47.726;3.298;2023-07-31T10:29:55;99054.06;;;25.48
61703;BMP280;47622;47.726;3.298;2023-07-31T10:32:24;99061.44;;;26.10
61703;BMP280;47622;47.726;3.298;2023-07-31T10:34:51;99045.94;;;26.93
61703;BMP280;47622;47.726;3.298;2023-07-31T10:37:28;99047.25;;;27.17
61703;BMP280;47622;47.726;3.298;2023-07-31T10:39:59;99050.19;;;26.55
61703;BMP280;47622;47.726;3.298;2023-07-31T10:45:26;99056.84;;;26.50
61703;BMP280;47622;47.726;3.298;2023-07-31T10:48:06;99052.78;;;26.22
61703;BMP280;47622;47.726;3.298;2023-07-31T10:50:36;99048.28;;;26.16
61703;BMP280;47622;47.726;3.298;2023-07-31T10:53:02;99046.97;;;26.04
61703;BMP280;47622;47.726;3.298;2023-07-31T10:55:32;99039.91;;;25.90
61703;BMP280;47622;47.726;3.298;2023-07-31T10:58:09;99032.63;;;26.11
61703;BMP280;47622;47.726;3.298;2023-07-31T11:00:37;99024.34;;;26.01
61703;BMP280;47622;47.726;3.298;2023-07-31T11:03:16;99015.28;;;25.49
61703;BMP280;47622;47.726;3.298;2023-07-31T11:05:46;99011.44;;;25.26
61703;BMP280;47622;47.726;3.298;2023-07-31T11:08:13;99012.13;;;25.30
61703;BMP280;47622;47.726;3.298;2023-07-31T11:10:39;99005.47;;;25.15
61703;BMP280;47622;47.726;3.298;2023-07-31T11:13:05;98994.97;;;25.24
61703;BMP280;47622;47.726;3.298;2023-07-31T11:15:31;98993.97;;;25.38
61703;BMP280;47622;47.726;3.298;2023-07-31T11:17:56;98990.81;;;25.66
61703;BMP280;47622;47.726;3.298;2023-07-31T11:20:24;98977.69;;;25.49
61703;BMP280;47622;47.726;3.298;2023-07-31T11:22:50;98988.97;;;25.40
61703;BMP280;47622;47.726;3.298;2023-07-31T11:25:16;98974.91;;;25.06
61703;BMP280;47622;47.726;3.298;2023-07-31T11:27:43;98967.59;;;25.10
61703;BMP280;47622;47.726;3.298;2023-07-31T11:30:09;98979.66;;;24.71
61703;BMP280;47622;47.726;3.298;2023-07-31T11:32:38;98962.84;;;24.37
61703;BMP280;47622;47.726;3.298;2023-07-31T11:35:04;98962.47;;;24.04
61703;BMP280;47622;47.726;3.298;2023-07-31T11:37:41;98967.03;;;24.07
61703;BMP280;47622;47.726;3.298;2023-07-31T11:40:07;98968.31;;;24.30
61703;BMP280;47622;47.726;3.298;2023-07-31T11:42:34;98959.56;;;24.56
61703;BMP280;47622;47.726;3.298;2023-07-31T11:45:04;98964.03;;;24.66
61703;BMP280;47622;47.726;3.298;2023-07-31T11:47:33;98949.94;;;25.09
61703;BMP280;47622;47.726;3.298;2023-07-31T11:50:02;98954.06;;;26.03
61703;BMP280;47622;47.726;3.298;2023-07-31T11:52:37;98954.13;;;26.19
61703;BMP280;47622;47.726;3.298;2023-07-31T11:55:05;98952.94;;;26.36
61703;BMP280;47622;47.726;3.298;2023-07-31T11:57:32;98957.84;;;26.05
61703;BMP280;47622;47.726;3.298;2023-07-31T11:59:58;98965.72;;;25.77
61703;BMP280;47622;47.726;3.298;2023-07-31T12:02:24;98949.41;;;25.64
61703;BMP280;47622;47.726;3.298;2023-07-31T12:04:49;98962.50;;;26.21
61703;BMP280;47622;47.726;3.298;2023-07-31T12:07:15;98946.13;;;25.96
61703;BMP280;47622;47.726;3.298;2023-07-31T12:09:54;98954.38;;;25.65
61703;BMP280;47622;47.726;3.298;2023-07-31T12:12:25;98946.44;;;25.58
61703;BMP280;47622;47.726;3.298;2023-07-31T12:14:51;98947.69;;;25.74
61703;BMP280;47622;47.726;3.298;2023-07-31T12:17:18;98943.81;;;25.75
61703;BMP280;47622;47.726;3.298;2023-07-31T12:19:45;98951.38;;;25.83
61703;BMP280;47622;47.726;3.298;2023-07-31T12:22:14;98940.88;;;25.89
61703;BMP280;47622;47.726;3.298;2023-07-31T12:24:42;98943.16;;;25.71
61703;BMP280;47622;47.726;3.298;2023-07-31T12:27:13;98942.84;;;25.45
61703;BMP280;47622;47.726;3.298;2023-07-31T12:29:42;98932.72;;;24.83
61703;BMP280;47622;47.726;3.298;2023-07-31T12:32:23;98933.94;;;24.78
61703;BMP280;47622;47.726;3.298;2023-07-31T12:34:54;98925.59;;;24.73
61703;BMP280;47622;47.726;3.298;2023-07-31T12:37:20;98921.34;;;24.75
61703;BMP280;47622;47.726;3.298;2023-07-31T12:39:46;98922.63;;;24.64
61703;BMP280;47622;47.726;3.298;2023-07-31T12:42:12;98919.94;;;24.90
61703;BMP280;47622;47.726;3.298;2023-07-31T12:44:37;98907.47;;;25.04
61703;BMP280;47622;47.726;3.298;2023-07-31T12:47:03;98916.22;;;25.31
61703;BMP280;47622;47.726;3.298;2023-07-31T12:49:29;98911.03;;;25.20
61703;BMP280;47622;47.726;3.298;2023-07-31T12:51:55;98905.72;;;25.17
61703;BMP280;47622;47.726;3.298;2023-07-31T12:54:20;98906.41;;;25.21
61703;BMP280;47622;47.726;3.298;2023-07-31T12:56:46;98904.47;;;25.84
61703;BMP280;47622;47.726;3.298;2023-07-31T12:59:11;98899.47;;;25.66
61703;BMP280;47622;47.726;3.298;2023-07-31T13:01:38;98897.63;;;25.83
61703;BMP280;47622;47.726;3.298;2023-07-31T13:04:04;98886.09;;;25.83
61703;BMP280;47622;47.726;3.298;2023-07-31T13:06:29;98883.34;;;25.66
61703;BMP280;47622;47.726;3.298;2023-07-31T13:08:55;98880.34;;;25.21
61703;BMP280;47622;47.726;3.298;2023-07-31T13:11:20;98876.25;;;24.90
61703;BMP280;47622;47.726;3.298;2023-07-31T13:13:46;98865.59;;;24.86
61703;BMP280;47622;47.726;3.298;2023-07-31T13:16:12;98868.25;;;24.63
61703;BMP280;47622;47.726;3.298;2023-07-31T13:18:37;98866.84;;;24.55
61703;BMP280;47622;47.726;3.298;2023-07-31T13:21:03;98860.88;;;24.17
61703;BMP280;47622;47.726;3.298;2023-07-31T13:23:28;98845.22;;;24.12
61703;BMP280;47622;47.726;3.298;2023-07-31T13:25:54;98859.88;;;24.04
61703;BMP280;47622;47.726;3.298;2023-07-31T13:28:20;98848.41;;;24.00
61703;BMP280;47622;47.726;3.298;2023-07-31T13:30:45;98844.69;;;23.94
61703;BMP280;47622;47.726;3.298;2023-07-31T13:33:11;98841.59;;;23.95
61703;BMP280;47622;47.726;3.298;2023-07-31T13:35:36;98818.91;;;23.73
61703;BMP280;47622;47.726;3.298;2023-07-31T13:38:02;98819.53;;;23.84
61703;BMP280;47622;47.726;3.298;2023-07-31T13:40:28;98812.81;;;23.69
61703;BMP280;47622;47.726;3.298;2023-07-31T13:42:53;98811.06;;;23.59
61703;BMP280;47622;47.726;3.298;2023-07-31T13:45:19;98817.06;;;23.70
61703;BMP280;47622;47.726;3.298;2023-07-31T13:47:45;98822.59;;;23.86
61703;BMP280;47622;47.726;3.298;2023-07-31T13:50:11;98814.13;;;23.91
61703;BMP280;47622;47.726;3.298;2023-07-31T13:52:36;98806.22;;;24.07
61703;BMP280;47622;47.726;3.298;2023-07-31T13:55:02;98811.44;;;24.18
61703;BMP280;47622;47.726;3.298;2023-07-31T13:57:27;98801.16;;;24.40
61703;BMP280;47622;47.726;3.298;2023-07-31T13:59:53;98796.44;;;24.47
61703;BMP280;47622;47.726;3.298;2023-07-31T14:02:19;98802.69;;;24.41
61703;BMP280;47622;47.726;3.298;2023-07-31T14:04:44;98801.06;;;24.47
61703;BMP280;47622;47.726;3.298;2023-07-31T14:07:10;98794.63;;;24.64
61703;BMP280;47622;47.726;3.298;2023-07-31T14:09:36;98801.53;;;24.88
61703;BMP280;47622;47.726;3.298;2023-07-31T14:12:02;98787.03;;;25.06